createdAt,value
2017-01-24T00:00:40.219Z,0
2017-01-24T00:01:48.872Z,0
2017-01-24T00:02:57.518Z,0
2017-01-24T00:04:06.175Z,0
2017-01-24T00:05:14.826Z,0
2017-01-24T00:06:23.476Z,0
2017-01-24T00:07:32.128Z,0
2017-01-24T00:08:40.779Z,0
2017-01-24T00:09:49.436Z,0
2017-01-24T00:10:58.086Z,0
2017-01-24T00:12:06.737Z,0
2017-01-24T00:13:15.385Z,0
2017-01-24T00:14:24.029Z,0
2017-01-24T00:15:32.682Z,0
2017-01-24T00:16:41.333Z,0
2017-01-24T00:17:49.979Z,0
2017-01-24T00:18:58.625Z,0
2017-01-24T00:20:07.278Z,0
2017-01-24T00:21:16.694Z,0
2017-01-24T00:22:25.340Z,0
2017-01-24T00:23:33.995Z,0
2017-01-24T00:24:42.640Z,0
2017-01-24T00:25:51.295Z,0
2017-01-24T00:26:59.942Z,0
2017-01-24T00:28:08.588Z,0
2017-01-24T00:29:17.241Z,0
2017-01-24T00:30:25.893Z,0
2017-01-24T00:31:34.544Z,0
2017-01-24T00:32:43.204Z,0
2017-01-24T00:33:51.850Z,0
2017-01-24T00:35:00.501Z,0
2017-01-24T00:36:09.147Z,0
2017-01-24T00:37:17.795Z,0
2017-01-24T00:38:26.439Z,0
2017-01-24T00:39:35.095Z,0
2017-01-24T00:40:43.750Z,0
2017-01-24T00:41:52.402Z,0
2017-01-24T00:43:01.046Z,0
2017-01-24T00:44:09.693Z,0
2017-01-24T00:45:18.341Z,0
2017-01-24T00:46:27.010Z,0
2017-01-24T00:47:35.660Z,0
2017-01-24T00:48:44.308Z,0
2017-01-24T00:49:52.955Z,0
2017-01-24T00:51:01.604Z,0
2017-01-24T00:52:10.248Z,0
2017-01-24T00:53:18.896Z,0
2017-01-24T00:54:27.544Z,0
2017-01-24T00:55:36.197Z,0
2017-01-24T00:56:44.873Z,0
2017-01-24T00:57:53.556Z,0
2017-01-24T00:59:02.203Z,0
2017-01-24T01:00:10.851Z,0
2017-01-24T01:01:19.502Z,0
2017-01-24T01:02:28.166Z,0
2017-01-24T01:03:36.813Z,0
2017-01-24T01:04:45.465Z,0
2017-01-24T01:05:54.115Z,0
2017-01-24T01:07:02.766Z,0
2017-01-24T01:08:11.421Z,0
2017-01-24T01:09:20.081Z,0
2017-01-24T01:10:28.753Z,0
2017-01-24T01:11:37.404Z,0
2017-01-24T01:12:46.064Z,0
2017-01-24T01:13:54.726Z,0
2017-01-24T01:15:03.378Z,0
2017-01-24T01:16:12.026Z,0
2017-01-24T01:17:20.675Z,0
2017-01-24T01:18:29.709Z,0
2017-01-24T01:19:38.360Z,0
2017-01-24T01:20:47.003Z,0
2017-01-24T01:21:55.651Z,0
2017-01-24T01:23:04.305Z,0
2017-01-24T01:24:12.955Z,0
2017-01-24T01:25:21.609Z,0
2017-01-24T01:26:30.259Z,0
2017-01-24T01:27:38.911Z,0
2017-01-24T01:28:47.562Z,0
2017-01-24T01:29:56.212Z,0
2017-01-24T01:31:04.867Z,0
2017-01-24T01:32:13.903Z,0
2017-01-24T01:33:22.548Z,0
2017-01-24T01:34:31.197Z,0
2017-01-24T01:35:39.841Z,0
2017-01-24T01:36:48.498Z,0
2017-01-24T01:37:57.144Z,0
2017-01-24T01:39:05.821Z,0
2017-01-24T01:40:14.472Z,0
2017-01-24T01:41:23.121Z,0
2017-01-24T01:42:31.768Z,0
2017-01-24T01:43:40.414Z,0
2017-01-24T01:44:49.063Z,0
2017-01-24T01:45:57.716Z,0
2017-01-24T01:47:06.364Z,0
2017-01-24T01:48:15.016Z,0
2017-01-24T01:49:23.668Z,0
2017-01-24T01:50:32.317Z,0
2017-01-24T01:51:40.970Z,0
2017-01-24T01:52:49.625Z,0
2017-01-24T01:53:58.283Z,0
2017-01-24T01:55:06.939Z,0
2017-01-24T01:56:15.589Z,0
2017-01-24T01:57:24.240Z,0
2017-01-24T01:58:32.890Z,0
2017-01-24T01:59:41.547Z,0
2017-01-24T02:00:50.195Z,0
2017-01-24T02:01:58.863Z,0
2017-01-24T02:03:07.519Z,0
2017-01-24T02:04:16.171Z,0
2017-01-24T02:05:24.819Z,0
2017-01-24T02:06:33.473Z,0
2017-01-24T02:07:42.128Z,0
2017-01-24T02:08:50.782Z,0
2017-01-24T02:09:59.430Z,0
2017-01-24T02:11:08.080Z,0
2017-01-24T02:12:16.730Z,0
2017-01-24T02:13:25.382Z,0
2017-01-24T02:14:34.032Z,0
2017-01-24T02:15:42.686Z,0
2017-01-24T02:16:51.339Z,0
2017-01-24T02:17:59.990Z,0
2017-01-24T02:19:08.643Z,0
2017-01-24T02:20:17.294Z,0
2017-01-24T02:21:25.945Z,0
2017-01-24T02:22:34.624Z,0
2017-01-24T02:23:43.279Z,0
2017-01-24T02:24:51.933Z,0
2017-01-24T02:26:00.586Z,0
2017-01-24T02:27:09.257Z,0
2017-01-24T02:28:17.903Z,0
2017-01-24T02:29:26.555Z,0
2017-01-24T02:30:35.209Z,0
2017-01-24T02:31:43.854Z,0
2017-01-24T02:32:52.504Z,0
2017-01-24T02:34:01.162Z,0
2017-01-24T02:35:09.823Z,0
2017-01-24T02:36:18.479Z,0
2017-01-24T02:37:27.131Z,0
2017-01-24T02:38:35.793Z,0
2017-01-24T02:39:44.448Z,0
2017-01-24T02:40:53.103Z,0
2017-01-24T02:42:01.756Z,0
2017-01-24T02:43:10.403Z,0
2017-01-24T02:44:19.053Z,0
2017-01-24T02:45:27.703Z,0
2017-01-24T02:46:36.350Z,0
2017-01-24T02:47:45.000Z,0
2017-01-24T02:48:53.652Z,0
2017-01-24T02:50:02.300Z,0
2017-01-24T02:51:10.948Z,0
2017-01-24T02:52:19.596Z,0
2017-01-24T02:53:28.247Z,0
2017-01-24T02:54:36.892Z,0
2017-01-24T02:55:45.544Z,0
2017-01-24T02:56:54.200Z,0
2017-01-24T02:58:02.853Z,0
2017-01-24T02:59:11.507Z,0
2017-01-24T03:00:20.156Z,0
2017-01-24T03:01:28.805Z,0
2017-01-24T03:02:37.458Z,0
2017-01-24T03:03:46.102Z,0
2017-01-24T03:04:54.750Z,0
2017-01-24T03:06:03.405Z,0
2017-01-24T03:07:12.057Z,0
2017-01-24T03:08:20.717Z,0
2017-01-24T03:09:29.362Z,0
2017-01-24T03:10:38.014Z,0
2017-01-24T03:11:46.672Z,0
2017-01-24T03:12:55.325Z,0
2017-01-24T03:14:03.981Z,0
2017-01-24T03:15:12.634Z,0
2017-01-24T03:16:21.277Z,0
2017-01-24T03:17:29.935Z,0
2017-01-24T03:18:38.588Z,0
2017-01-24T03:19:47.239Z,0
2017-01-24T03:20:55.893Z,0
2017-01-24T03:22:04.548Z,0
2017-01-24T03:23:13.191Z,0
2017-01-24T03:24:21.839Z,0
2017-01-24T03:25:30.489Z,0
2017-01-24T03:26:39.141Z,0
2017-01-24T03:27:47.789Z,0
2017-01-24T03:28:56.440Z,0
2017-01-24T03:30:05.092Z,0
2017-01-24T03:31:13.747Z,0
2017-01-24T03:32:22.397Z,0
2017-01-24T03:33:31.051Z,0
2017-01-24T03:34:39.704Z,0
2017-01-24T03:35:48.354Z,0
2017-01-24T03:36:57.024Z,0
2017-01-24T03:38:05.677Z,0
2017-01-24T03:39:14.325Z,0
2017-01-24T03:40:22.976Z,0
2017-01-24T03:41:31.627Z,0
2017-01-24T03:42:40.274Z,0
2017-01-24T03:43:48.934Z,0
2017-01-24T03:44:57.590Z,0
2017-01-24T03:46:06.240Z,0
2017-01-24T03:47:14.889Z,0
2017-01-24T03:48:23.540Z,0
2017-01-24T03:49:32.199Z,0
2017-01-24T03:50:40.851Z,0
2017-01-24T03:51:49.505Z,0
2017-01-24T03:52:58.154Z,0
2017-01-24T03:54:06.813Z,0
2017-01-24T03:55:15.466Z,0
2017-01-24T03:56:24.121Z,0
2017-01-24T03:57:32.774Z,0
2017-01-24T03:58:41.431Z,0
2017-01-24T03:59:50.080Z,0
2017-01-24T04:00:58.733Z,0
2017-01-24T04:02:07.386Z,0
2017-01-24T04:03:16.056Z,0
2017-01-24T04:04:24.706Z,0
2017-01-24T04:05:33.361Z,0
2017-01-24T04:06:42.018Z,0
2017-01-24T04:07:50.673Z,0
2017-01-24T04:08:59.325Z,0
2017-01-24T04:10:07.975Z,0
2017-01-24T04:11:16.625Z,0
2017-01-24T04:12:25.275Z,0
2017-01-24T04:13:33.927Z,0
2017-01-24T04:14:42.592Z,0
2017-01-24T04:15:51.247Z,0
2017-01-24T04:16:59.895Z,0
2017-01-24T04:18:08.545Z,0
2017-01-24T04:19:17.197Z,0
2017-01-24T04:20:25.845Z,0
2017-01-24T04:21:34.498Z,0
2017-01-24T04:22:43.151Z,0
2017-01-24T04:23:51.798Z,0
2017-01-24T04:25:00.453Z,0
2017-01-24T04:26:09.106Z,0
2017-01-24T04:27:17.755Z,0
2017-01-24T04:28:26.406Z,0
2017-01-24T04:29:35.059Z,0
2017-01-24T04:30:43.714Z,0
2017-01-24T04:31:52.364Z,0
2017-01-24T04:33:01.024Z,0
2017-01-24T04:34:09.687Z,0
2017-01-24T04:35:18.338Z,0
2017-01-24T04:36:26.986Z,0
2017-01-24T04:37:35.640Z,0
2017-01-24T04:38:44.291Z,0
2017-01-24T04:39:52.948Z,0
2017-01-24T04:41:01.615Z,0
2017-01-24T04:42:10.267Z,0
2017-01-24T04:43:18.919Z,0
2017-01-24T04:44:27.566Z,0
2017-01-24T04:45:36.218Z,0
2017-01-24T04:46:44.867Z,0
2017-01-24T04:47:53.516Z,0
2017-01-24T04:49:02.165Z,0
2017-01-24T04:50:10.812Z,0
2017-01-24T04:51:19.460Z,0
2017-01-24T04:52:28.112Z,0
2017-01-24T04:53:36.763Z,0
2017-01-24T04:54:45.414Z,0
2017-01-24T04:55:54.071Z,0
2017-01-24T04:57:02.721Z,0
2017-01-24T04:58:11.369Z,0
2017-01-24T04:59:20.019Z,0
2017-01-24T05:00:28.675Z,0
2017-01-24T05:01:37.327Z,0
2017-01-24T05:02:45.977Z,0
2017-01-24T05:03:54.627Z,0
2017-01-24T05:05:03.276Z,0
2017-01-24T05:06:11.924Z,0
2017-01-24T05:07:20.573Z,0
2017-01-24T05:08:29.225Z,0
2017-01-24T05:09:37.885Z,0
2017-01-24T05:10:46.533Z,0
2017-01-24T05:11:55.181Z,0
2017-01-24T05:13:03.834Z,0
2017-01-24T05:14:12.488Z,0
2017-01-24T05:15:21.138Z,0
2017-01-24T05:16:29.787Z,0
2017-01-24T05:17:38.437Z,0
2017-01-24T05:18:47.089Z,0
2017-01-24T05:19:55.739Z,0
2017-01-24T05:21:04.390Z,0
2017-01-24T05:22:13.042Z,0
2017-01-24T05:23:21.688Z,0
2017-01-24T05:24:30.340Z,0
2017-01-24T05:25:38.991Z,0
2017-01-24T05:26:47.644Z,0
2017-01-24T05:27:56.294Z,0
2017-01-24T05:29:04.957Z,0
2017-01-24T05:30:13.621Z,0
2017-01-24T05:31:22.265Z,0
2017-01-24T05:32:30.914Z,0
2017-01-24T05:33:39.566Z,0
2017-01-24T05:34:48.224Z,0
2017-01-24T05:35:56.874Z,0
2017-01-24T05:37:05.528Z,0
2017-01-24T05:38:14.179Z,0
2017-01-24T05:39:22.825Z,0
2017-01-24T05:40:31.479Z,0
2017-01-24T05:41:40.131Z,0
2017-01-24T05:42:48.786Z,0
2017-01-24T05:43:57.438Z,0
2017-01-24T05:45:06.084Z,0
2017-01-24T05:46:14.737Z,0
2017-01-24T05:47:23.387Z,0
2017-01-24T05:48:32.037Z,0
2017-01-24T05:49:40.696Z,0
2017-01-24T05:50:49.346Z,0
2017-01-24T05:51:58.006Z,0
2017-01-24T05:53:06.664Z,0
2017-01-24T05:54:15.316Z,0
2017-01-24T05:55:23.964Z,0
2017-01-24T05:56:32.611Z,0
2017-01-24T05:57:41.264Z,0
2017-01-24T05:58:49.918Z,0
2017-01-24T05:59:58.568Z,0
2017-01-24T06:01:07.235Z,0
2017-01-24T06:02:15.884Z,0
2017-01-24T06:03:24.540Z,0
2017-01-24T06:04:33.209Z,0
2017-01-24T06:05:41.862Z,0
2017-01-24T06:06:50.510Z,0
2017-01-24T06:07:59.164Z,0
2017-01-24T06:09:07.812Z,0
2017-01-24T06:10:16.458Z,0
2017-01-24T06:11:25.111Z,0
2017-01-24T06:12:33.765Z,0
2017-01-24T06:13:42.417Z,0
2017-01-24T06:14:51.063Z,0
2017-01-24T06:15:59.723Z,0
2017-01-24T06:17:08.382Z,0
2017-01-24T06:18:17.030Z,0
2017-01-24T06:19:25.714Z,0
2017-01-24T06:20:34.364Z,0
2017-01-24T06:21:43.018Z,0
2017-01-24T06:22:51.670Z,0
2017-01-24T06:24:00.325Z,0
2017-01-24T06:25:08.980Z,0
2017-01-24T06:26:17.636Z,0
2017-01-24T06:27:26.285Z,0
2017-01-24T06:28:34.938Z,0
2017-01-24T06:29:43.591Z,0
2017-01-24T06:30:52.244Z,0
2017-01-24T06:32:00.897Z,0
2017-01-24T06:33:09.554Z,0
2017-01-24T06:34:18.205Z,0
2017-01-24T06:35:26.852Z,0
2017-01-24T06:36:35.506Z,0
2017-01-24T06:37:44.184Z,0
2017-01-24T06:38:52.834Z,0
2017-01-24T06:40:01.489Z,0
2017-01-24T06:41:10.143Z,0
2017-01-24T06:42:18.793Z,0
2017-01-24T06:43:27.450Z,0
2017-01-24T06:44:36.107Z,0
2017-01-24T06:45:44.759Z,0
2017-01-24T06:46:53.412Z,0
2017-01-24T06:48:02.070Z,0
2017-01-24T06:49:10.769Z,0
2017-01-24T06:50:19.421Z,0
2017-01-24T06:51:28.071Z,0
2017-01-24T06:52:36.712Z,0
2017-01-24T06:53:45.364Z,0
2017-01-24T06:54:54.018Z,0
2017-01-24T06:56:02.670Z,0
2017-01-24T06:57:11.316Z,0
2017-01-24T06:58:19.971Z,0
2017-01-24T06:59:28.619Z,0
2017-01-24T07:00:37.273Z,0
2017-01-24T07:01:45.924Z,0
2017-01-24T07:02:54.574Z,0
2017-01-24T07:04:03.232Z,0
2017-01-24T07:05:11.889Z,0
2017-01-24T07:06:20.543Z,0
2017-01-24T07:07:29.198Z,0
2017-01-24T07:08:37.845Z,0
2017-01-24T07:09:46.905Z,0
2017-01-24T07:10:55.560Z,0
2017-01-24T07:12:04.211Z,0
2017-01-24T07:13:12.865Z,0
2017-01-24T07:14:21.532Z,0
2017-01-24T07:15:30.189Z,0
2017-01-24T07:16:38.835Z,0
2017-01-24T07:17:47.489Z,0
2017-01-24T07:18:56.143Z,0
2017-01-24T07:20:04.799Z,0
2017-01-24T07:21:13.452Z,0
2017-01-24T07:22:22.106Z,0
2017-01-24T07:23:30.762Z,0
2017-01-24T07:24:39.420Z,0
2017-01-24T07:25:48.072Z,0
2017-01-24T07:26:56.748Z,0
2017-01-24T07:28:05.402Z,0
2017-01-24T07:29:14.054Z,5
2017-01-24T07:30:22.713Z,5
2017-01-24T07:31:31.364Z,5
2017-01-24T07:32:40.024Z,5
2017-01-24T07:33:48.671Z,5
2017-01-24T07:34:57.326Z,5
2017-01-24T07:36:05.981Z,5
2017-01-24T07:37:14.630Z,5
2017-01-24T07:38:23.285Z,10
2017-01-24T07:39:31.947Z,10
2017-01-24T07:40:40.599Z,10
2017-01-24T07:41:49.250Z,10
2017-01-24T07:42:57.901Z,10
2017-01-24T07:44:06.561Z,10
2017-01-24T07:45:15.220Z,10
2017-01-24T07:46:23.878Z,10
2017-01-24T07:47:32.529Z,10
2017-01-24T07:48:41.178Z,15
2017-01-24T07:49:49.834Z,15
2017-01-24T07:50:58.488Z,15
2017-01-24T07:52:07.141Z,15
2017-01-24T07:53:15.792Z,15
2017-01-24T07:54:24.447Z,15
2017-01-24T07:55:33.097Z,15
2017-01-24T07:56:41.752Z,20
2017-01-24T07:57:50.403Z,20
2017-01-24T07:58:59.060Z,20
2017-01-24T08:00:07.711Z,25
2017-01-24T08:01:16.367Z,25
2017-01-24T08:02:25.014Z,25
2017-01-24T08:03:33.664Z,25
2017-01-24T08:04:42.318Z,30
2017-01-24T08:05:50.965Z,30
2017-01-24T08:06:59.625Z,30
2017-01-24T08:08:08.281Z,30
2017-01-24T08:09:16.936Z,30
2017-01-24T08:10:25.586Z,35
2017-01-24T08:11:34.241Z,30
2017-01-24T08:12:42.892Z,30
2017-01-24T08:13:51.541Z,30
2017-01-24T08:15:00.192Z,35
2017-01-24T08:16:08.848Z,35
2017-01-24T08:17:17.500Z,35
2017-01-24T08:18:26.145Z,40
2017-01-24T08:19:34.797Z,40
2017-01-24T08:20:43.451Z,40
2017-01-24T08:21:52.099Z,40
2017-01-24T08:23:00.750Z,40
2017-01-24T08:24:09.401Z,40
2017-01-24T08:25:18.055Z,40
2017-01-24T08:26:26.728Z,40
2017-01-24T08:27:35.372Z,40
2017-01-24T08:28:44.023Z,40
2017-01-24T08:29:52.676Z,40
2017-01-24T08:31:01.325Z,40
2017-01-24T08:32:09.979Z,40
2017-01-24T08:33:18.629Z,40
2017-01-24T08:34:27.279Z,40
2017-01-24T08:35:35.931Z,40
2017-01-24T08:36:44.583Z,40
2017-01-24T08:37:53.238Z,40
2017-01-24T08:39:01.894Z,40
2017-01-24T08:40:10.549Z,45
2017-01-24T08:41:19.206Z,45
2017-01-24T08:42:27.857Z,45
2017-01-24T08:43:36.512Z,50
2017-01-24T08:44:45.169Z,55
2017-01-24T08:45:53.821Z,55
2017-01-24T08:47:02.470Z,55
2017-01-24T08:48:11.123Z,55
2017-01-24T08:49:19.782Z,55
2017-01-24T08:50:28.445Z,60
2017-01-24T08:51:37.099Z,60
2017-01-24T08:52:45.749Z,65
2017-01-24T08:53:54.399Z,70
2017-01-24T08:55:03.052Z,70
2017-01-24T08:56:11.706Z,75
2017-01-24T08:57:20.356Z,75
2017-01-24T08:58:29.035Z,70
2017-01-24T08:59:37.688Z,75
2017-01-24T09:00:46.344Z,75
2017-01-24T09:01:54.993Z,75
2017-01-24T09:03:03.642Z,75
2017-01-24T09:04:12.305Z,70
2017-01-24T09:05:20.960Z,70
2017-01-24T09:06:29.615Z,70
2017-01-24T09:07:38.272Z,70
2017-01-24T09:08:46.925Z,75
2017-01-24T09:09:55.575Z,75
2017-01-24T09:11:04.233Z,75
2017-01-24T09:12:12.888Z,70
2017-01-24T09:13:21.571Z,70
2017-01-24T09:14:30.227Z,65
2017-01-24T09:15:38.910Z,65
2017-01-24T09:16:47.577Z,65
2017-01-24T09:17:56.290Z,70
2017-01-24T09:19:04.945Z,70
2017-01-24T09:20:13.602Z,70
2017-01-24T09:21:22.260Z,75
2017-01-24T09:22:30.916Z,75
2017-01-24T09:23:39.569Z,80
2017-01-24T09:24:48.227Z,85
2017-01-24T09:25:56.882Z,85
2017-01-24T09:27:05.537Z,85
2017-01-24T09:28:14.191Z,90
2017-01-24T09:29:22.842Z,90
2017-01-24T09:30:31.495Z,100
2017-01-24T09:31:40.145Z,105
2017-01-24T09:32:48.800Z,110
2017-01-24T09:33:57.453Z,115
2017-01-24T09:35:06.133Z,120
2017-01-24T09:36:14.787Z,120
2017-01-24T09:37:23.435Z,120
2017-01-24T09:38:32.091Z,120
2017-01-24T09:39:40.751Z,125
2017-01-24T09:40:49.402Z,125
2017-01-24T09:41:58.047Z,130
2017-01-24T09:43:06.695Z,130
2017-01-24T09:44:15.347Z,135
2017-01-24T09:45:24.004Z,145
2017-01-24T09:46:32.653Z,150
2017-01-24T09:47:41.314Z,150
2017-01-24T09:48:49.958Z,155
2017-01-24T09:49:58.604Z,150
2017-01-24T09:51:07.255Z,140
2017-01-24T09:52:15.902Z,130
2017-01-24T09:53:24.549Z,130
2017-01-24T09:54:33.195Z,130
2017-01-24T09:55:41.839Z,130
2017-01-24T09:56:50.490Z,130
2017-01-24T09:57:59.138Z,135
2017-01-24T09:59:07.788Z,130
2017-01-24T10:00:16.440Z,135
2017-01-24T10:01:25.095Z,145
2017-01-24T10:02:33.739Z,150
2017-01-24T10:03:42.389Z,160
2017-01-24T10:04:51.043Z,160
2017-01-24T10:05:59.694Z,160
2017-01-24T10:07:08.346Z,165
2017-01-24T10:08:16.995Z,165
2017-01-24T10:09:25.640Z,165
2017-01-24T10:10:34.292Z,165
2017-01-24T10:11:42.942Z,160
2017-01-24T10:12:51.588Z,160
2017-01-24T10:14:00.237Z,155
2017-01-24T10:15:08.893Z,155
2017-01-24T10:16:17.546Z,160
2017-01-24T10:17:26.202Z,160
2017-01-24T10:18:34.855Z,165
2017-01-24T10:19:43.515Z,180
2017-01-24T10:20:52.552Z,180
2017-01-24T10:22:01.200Z,185
2017-01-24T10:23:09.853Z,190
2017-01-24T10:24:18.508Z,215
2017-01-24T10:25:27.157Z,225
2017-01-24T10:26:35.809Z,235
2017-01-24T10:27:44.457Z,240
2017-01-24T10:28:53.104Z,250
2017-01-24T10:30:01.761Z,275
2017-01-24T10:31:10.420Z,300
2017-01-24T10:32:19.071Z,290
2017-01-24T10:33:28.110Z,300
2017-01-24T10:34:36.760Z,295
2017-01-24T10:35:45.416Z,280
2017-01-24T10:36:54.067Z,290
2017-01-24T10:38:02.734Z,295
2017-01-24T10:39:11.383Z,295
2017-01-24T10:40:20.033Z,290
2017-01-24T10:41:28.686Z,285
2017-01-24T10:42:37.342Z,285
2017-01-24T10:43:46.024Z,285
2017-01-24T10:44:54.678Z,290
2017-01-24T10:46:03.328Z,300
2017-01-24T10:47:11.982Z,310
2017-01-24T10:48:20.636Z,320
2017-01-24T10:49:29.285Z,345
2017-01-24T10:50:37.946Z,355
2017-01-24T10:51:46.600Z,365
2017-01-24T10:52:55.252Z,355
2017-01-24T10:54:03.904Z,340
2017-01-24T10:55:12.557Z,325
2017-01-24T10:56:21.217Z,290
2017-01-24T10:57:29.865Z,265
2017-01-24T10:58:38.531Z,260
2017-01-24T10:59:47.180Z,265
2017-01-24T11:00:55.844Z,275
2017-01-24T11:02:04.511Z,265
2017-01-24T11:03:13.163Z,255
2017-01-24T11:04:21.842Z,250
2017-01-24T11:05:30.503Z,245
2017-01-24T11:06:39.153Z,230
2017-01-24T11:07:47.804Z,225
2017-01-24T11:08:56.456Z,225
2017-01-24T11:10:05.119Z,220
2017-01-24T11:11:13.771Z,205
2017-01-24T11:12:22.426Z,195
2017-01-24T11:13:31.078Z,190
2017-01-24T11:14:39.740Z,190
2017-01-24T11:15:48.397Z,205
2017-01-24T11:16:57.048Z,200
2017-01-24T11:18:05.700Z,205
2017-01-24T11:19:14.360Z,210
2017-01-24T11:20:23.017Z,205
2017-01-24T11:21:31.675Z,205
2017-01-24T11:22:40.329Z,200
2017-01-24T11:23:48.981Z,200
2017-01-24T11:24:57.642Z,200
2017-01-24T11:26:06.302Z,190
2017-01-24T11:27:14.952Z,185
2017-01-24T11:28:23.602Z,190
2017-01-24T11:29:32.255Z,200
2017-01-24T11:30:40.909Z,205
2017-01-24T11:31:49.568Z,200
2017-01-24T11:32:58.219Z,195
2017-01-24T11:34:06.878Z,185
2017-01-24T11:35:15.532Z,180
2017-01-24T11:36:24.184Z,175
2017-01-24T11:37:32.842Z,175
2017-01-24T11:38:41.520Z,180
2017-01-24T11:39:50.176Z,185
2017-01-24T11:40:58.833Z,190
2017-01-24T11:42:07.501Z,190
2017-01-24T11:43:16.153Z,195
2017-01-24T11:44:24.807Z,190
2017-01-24T11:45:33.471Z,190
2017-01-24T11:46:42.127Z,190
2017-01-24T11:47:50.781Z,185
2017-01-24T11:48:59.436Z,180
2017-01-24T11:50:08.093Z,175
2017-01-24T11:51:16.748Z,170
2017-01-24T11:52:25.399Z,175
2017-01-24T11:53:34.077Z,185
2017-01-24T11:54:42.733Z,195
2017-01-24T11:55:51.389Z,195
2017-01-24T11:57:00.050Z,200
2017-01-24T11:58:08.704Z,205
2017-01-24T11:59:17.366Z,205
2017-01-24T12:00:26.034Z,215
2017-01-24T12:01:34.697Z,220
2017-01-24T12:02:43.357Z,225
2017-01-24T12:03:52.013Z,225
2017-01-24T12:05:00.666Z,225
2017-01-24T12:06:09.323Z,225
2017-01-24T12:07:18.184Z,225
2017-01-24T12:08:26.843Z,225
2017-01-24T12:09:35.884Z,225
2017-01-24T12:10:44.541Z,220
2017-01-24T12:11:53.191Z,215
2017-01-24T12:13:01.854Z,215
2017-01-24T12:14:10.511Z,215
2017-01-24T12:15:19.189Z,215
2017-01-24T12:16:27.862Z,215
2017-01-24T12:17:36.524Z,210
2017-01-24T12:18:45.182Z,205
2017-01-24T12:19:53.836Z,205
2017-01-24T12:21:02.497Z,205
2017-01-24T12:22:11.155Z,210
2017-01-24T12:23:19.815Z,210
2017-01-24T12:24:28.473Z,210
2017-01-24T12:25:37.128Z,210
2017-01-24T12:26:45.780Z,210
2017-01-24T12:27:54.433Z,215
2017-01-24T12:29:03.086Z,215
2017-01-24T12:30:11.740Z,210
2017-01-24T12:31:20.391Z,215
2017-01-24T12:32:29.053Z,215
2017-01-24T12:33:37.706Z,215
2017-01-24T12:34:46.356Z,220
2017-01-24T12:35:55.011Z,220
2017-01-24T12:37:03.666Z,220
2017-01-24T12:38:12.322Z,220
2017-01-24T12:39:20.977Z,215
2017-01-24T12:40:29.634Z,210
2017-01-24T12:41:38.286Z,200
2017-01-24T12:42:46.944Z,195
2017-01-24T12:43:55.597Z,195
2017-01-24T12:45:04.272Z,190
2017-01-24T12:46:12.933Z,185
2017-01-24T12:47:21.589Z,180
2017-01-24T12:48:30.253Z,175
2017-01-24T12:49:38.908Z,165
2017-01-24T12:50:47.564Z,165
2017-01-24T12:51:56.215Z,165
2017-01-24T12:53:04.867Z,160
2017-01-24T12:54:13.519Z,160
2017-01-24T12:55:22.179Z,160
2017-01-24T12:56:30.828Z,160
2017-01-24T12:57:39.499Z,160
2017-01-24T12:58:48.158Z,165
2017-01-24T12:59:56.814Z,160
2017-01-24T13:01:05.464Z,160
2017-01-24T13:02:14.118Z,160
2017-01-24T13:03:22.771Z,165
2017-01-24T13:04:31.440Z,170
2017-01-24T13:05:40.092Z,185
2017-01-24T13:06:48.800Z,195
2017-01-24T13:07:57.455Z,200
2017-01-24T13:09:06.152Z,205
2017-01-24T13:10:14.802Z,200
2017-01-24T13:11:23.455Z,205
2017-01-24T13:12:32.107Z,210
2017-01-24T13:13:40.758Z,220
2017-01-24T13:14:49.416Z,215
2017-01-24T13:15:58.071Z,205
2017-01-24T13:17:06.733Z,205
2017-01-24T13:18:15.402Z,215
2017-01-24T13:19:24.056Z,215
2017-01-24T13:20:32.714Z,220
2017-01-24T13:21:41.370Z,220
2017-01-24T13:22:50.028Z,225
2017-01-24T13:23:58.680Z,240
2017-01-24T13:25:07.340Z,245
2017-01-24T13:26:15.995Z,255
2017-01-24T13:27:24.650Z,255
2017-01-24T13:28:33.309Z,255
2017-01-24T13:29:41.963Z,260
2017-01-24T13:30:50.615Z,265
2017-01-24T13:31:59.272Z,265
2017-01-24T13:33:07.927Z,255
2017-01-24T13:34:16.596Z,255
2017-01-24T13:35:25.253Z,250
2017-01-24T13:36:33.912Z,250
2017-01-24T13:37:42.562Z,260
2017-01-24T13:38:51.216Z,260
2017-01-24T13:39:59.875Z,250
2017-01-24T13:41:08.533Z,235
2017-01-24T13:42:17.186Z,235
2017-01-24T13:43:25.841Z,235
2017-01-24T13:44:34.493Z,230
2017-01-24T13:45:43.145Z,225
2017-01-24T13:46:51.831Z,215
2017-01-24T13:48:00.482Z,215
2017-01-24T13:49:09.133Z,215
2017-01-24T13:50:17.786Z,220
2017-01-24T13:51:26.440Z,225
2017-01-24T13:52:35.107Z,225
2017-01-24T13:53:43.762Z,220
2017-01-24T13:54:52.414Z,210
2017-01-24T13:56:01.069Z,200
2017-01-24T13:57:09.734Z,190
2017-01-24T13:58:18.409Z,180
2017-01-24T13:59:27.062Z,175
2017-01-24T14:00:35.714Z,170
2017-01-24T14:01:44.367Z,175
2017-01-24T14:02:53.021Z,175
2017-01-24T14:04:01.676Z,180
2017-01-24T14:05:10.334Z,190
2017-01-24T14:06:18.984Z,195
2017-01-24T14:07:27.638Z,195
2017-01-24T14:08:36.293Z,190
2017-01-24T14:09:44.942Z,190
2017-01-24T14:10:53.600Z,185
2017-01-24T14:12:02.260Z,185
2017-01-24T14:13:10.930Z,180
2017-01-24T14:14:19.583Z,170
2017-01-24T14:15:28.237Z,170
2017-01-24T14:16:36.898Z,170
2017-01-24T14:17:45.560Z,170
2017-01-24T14:18:54.218Z,170
2017-01-24T14:20:02.870Z,170
2017-01-24T14:21:11.529Z,170
2017-01-24T14:22:20.178Z,170
2017-01-24T14:23:28.833Z,165
2017-01-24T14:24:37.491Z,160
2017-01-24T14:25:46.140Z,155
2017-01-24T14:26:54.793Z,155
2017-01-24T14:28:03.450Z,145
2017-01-24T14:29:12.107Z,140
2017-01-24T14:30:20.766Z,135
2017-01-24T14:31:29.416Z,130
2017-01-24T14:32:38.066Z,130
2017-01-24T14:33:46.718Z,130
2017-01-24T14:34:55.368Z,125
2017-01-24T14:36:04.028Z,125
2017-01-24T14:37:12.686Z,120
2017-01-24T14:38:21.341Z,120
2017-01-24T14:39:29.992Z,125
2017-01-24T14:40:38.641Z,125
2017-01-24T14:41:47.301Z,120
2017-01-24T14:42:55.955Z,115
2017-01-24T14:44:04.611Z,110
2017-01-24T14:45:13.269Z,110
2017-01-24T14:46:21.956Z,115
2017-01-24T14:47:30.612Z,115
2017-01-24T14:48:39.270Z,110
2017-01-24T14:49:47.926Z,110
2017-01-24T14:50:56.583Z,105
2017-01-24T14:52:05.622Z,100
2017-01-24T14:53:14.273Z,95
2017-01-24T14:54:22.927Z,90
2017-01-24T14:55:31.586Z,85
2017-01-24T14:56:40.240Z,85
2017-01-24T14:57:48.924Z,85
2017-01-24T14:58:57.584Z,85
2017-01-24T15:00:06.234Z,85
2017-01-24T15:01:14.896Z,80
2017-01-24T15:02:23.546Z,80
2017-01-24T15:03:32.195Z,80
2017-01-24T15:04:40.849Z,80
2017-01-24T15:05:49.509Z,80
2017-01-24T15:06:58.179Z,75
2017-01-24T15:08:06.833Z,75
2017-01-24T15:09:15.481Z,75
2017-01-24T15:10:24.141Z,75
2017-01-24T15:11:32.794Z,75
2017-01-24T15:12:41.449Z,75
2017-01-24T15:13:50.101Z,70
2017-01-24T15:14:58.820Z,65
2017-01-24T15:16:07.483Z,55
2017-01-24T15:17:16.134Z,55
2017-01-24T15:18:24.787Z,50
2017-01-24T15:19:33.438Z,50
2017-01-24T15:20:42.098Z,45
2017-01-24T15:21:50.753Z,45
2017-01-24T15:22:59.403Z,45
2017-01-24T15:24:08.057Z,45
2017-01-24T15:25:16.714Z,45
2017-01-24T15:26:25.367Z,45
2017-01-24T15:27:34.019Z,40
2017-01-24T15:28:42.681Z,40
2017-01-24T15:29:51.354Z,40
2017-01-24T15:31:00.008Z,35
2017-01-24T15:32:08.666Z,35
2017-01-24T15:33:17.323Z,35
2017-01-24T15:34:25.979Z,30
2017-01-24T15:35:34.652Z,30
2017-01-24T15:36:43.301Z,25
2017-01-24T15:37:51.960Z,25
2017-01-24T15:39:00.625Z,25
2017-01-24T15:40:09.280Z,20
2017-01-24T15:41:17.930Z,20
2017-01-24T15:42:26.590Z,20
2017-01-24T15:43:35.251Z,20
2017-01-24T15:44:43.902Z,20
2017-01-24T15:45:52.937Z,20
2017-01-24T15:47:01.595Z,20
2017-01-24T15:48:10.252Z,20
2017-01-24T15:49:18.905Z,15
2017-01-24T15:50:27.569Z,15
2017-01-24T15:51:36.223Z,15
2017-01-24T15:52:44.885Z,15
2017-01-24T15:53:53.534Z,15
2017-01-24T15:55:02.193Z,15
2017-01-24T15:56:10.848Z,15
2017-01-24T15:57:19.504Z,10
2017-01-24T15:58:28.156Z,10
2017-01-24T15:59:36.812Z,10
2017-01-24T16:00:45.464Z,10
2017-01-24T16:01:54.124Z,10
2017-01-24T16:03:02.773Z,5
2017-01-24T16:04:11.428Z,5
2017-01-24T16:05:20.080Z,5
2017-01-24T16:06:29.119Z,5
2017-01-24T16:07:37.775Z,5
2017-01-24T16:08:46.432Z,5
2017-01-24T16:09:55.094Z,5
2017-01-24T16:11:03.756Z,5
2017-01-24T16:12:12.414Z,5
2017-01-24T16:13:21.069Z,5
2017-01-24T16:14:29.723Z,5
2017-01-24T16:15:38.387Z,5
2017-01-24T16:16:47.039Z,5
2017-01-24T16:17:55.698Z,0
2017-01-24T16:19:04.394Z,0
2017-01-24T16:20:13.059Z,0
2017-01-24T16:21:21.718Z,0
2017-01-24T16:22:30.372Z,0
2017-01-24T16:23:39.027Z,0
2017-01-24T16:24:47.686Z,0